createdAt,value
2019-01-12T00:02:23.111Z,70.28
2019-01-12T00:07:26.320Z,69.96
2019-01-12T00:12:29.522Z,69.65
2019-01-12T00:17:32.782Z,69.53
2019-01-12T00:22:36.006Z,69.33
2019-01-12T00:27:39.344Z,69.37
2019-01-12T00:32:42.668Z,69.27
2019-01-12T00:37:45.878Z,69.68
2019-01-12T00:42:49.235Z,69.53
2019-01-12T00:47:52.565Z,69.19
2019-01-12T00:52:55.776Z,69.28
2019-01-12T00:57:59.208Z,69.19
2019-01-12T01:03:02.415Z,69.15
2019-01-12T01:08:05.712Z,68.80
2019-01-12T01:13:09.155Z,68.87
2019-01-12T01:18:12.380Z,69.03
2019-01-12T01:23:15.676Z,69.13
2019-01-12T01:28:18.907Z,68.70
2019-01-12T01:33:27.882Z,68.87
2019-01-12T01:38:25.382Z,68.59
2019-01-12T01:43:28.831Z,68.85
2019-01-12T01:48:32.172Z,68.97
2019-01-12T01:53:35.373Z,69.03
2019-01-12T01:58:38.597Z,69.35
2019-01-12T02:03:41.879Z,69.34
2019-01-12T02:08:45.151Z,69.64
2019-01-12T02:13:48.419Z,69.67
2019-01-12T02:18:51.663Z,69.80
2019-01-12T02:23:54.958Z,69.58
2019-01-12T02:28:58.300Z,69.40
2019-01-12T02:34:01.546Z,69.47
2019-01-12T02:39:06.707Z,69.18
2019-01-12T02:44:09.959Z,69.43
2019-01-12T02:49:13.176Z,69.62
2019-01-12T02:54:16.631Z,69.39
2019-01-12T02:59:19.862Z,69.63
2019-01-12T03:04:23.346Z,69.50
2019-01-12T03:09:27.599Z,69.65
2019-01-12T03:14:30.854Z,69.78
2019-01-12T03:19:34.353Z,70.14
2019-01-12T03:24:37.610Z,69.71
2019-01-12T03:29:40.876Z,69.99
2019-01-12T03:34:44.183Z,69.51
2019-01-12T03:39:47.471Z,69.39
2019-01-12T03:44:51.751Z,69.59
2019-01-12T03:49:54.966Z,69.72
2019-01-12T03:54:58.260Z,69.92
2019-01-12T04:00:01.640Z,69.97
2019-01-12T04:05:05.270Z,70.06
2019-01-12T04:10:08.844Z,70.12
2019-01-12T04:15:12.173Z,69.93
2019-01-12T04:20:16.428Z,70.26
2019-01-12T04:25:19.633Z,69.99
2019-01-12T04:30:22.883Z,70.17
2019-01-12T04:35:26.107Z,70.03
2019-01-12T04:40:29.333Z,70.04
2019-01-12T04:45:32.644Z,70.28
2019-01-12T04:50:35.859Z,70.06
2019-01-12T04:55:41.586Z,70.25
2019-01-12T05:00:42.339Z,69.96
2019-01-12T05:05:45.549Z,70.13
2019-01-12T05:10:48.743Z,70.29
2019-01-12T05:15:52.025Z,70.00
2019-01-12T05:20:55.225Z,70.49
2019-01-12T05:25:58.473Z,70.65
2019-01-12T05:31:01.869Z,70.63
2019-01-12T05:36:05.098Z,70.86
2019-01-12T05:41:08.327Z,70.76
2019-01-12T05:46:11.537Z,71.24
2019-01-12T05:51:14.760Z,71.09
2019-01-12T05:56:18.113Z,71.05
2019-01-12T06:01:21.352Z,70.51
2019-01-12T06:06:24.562Z,70.73
2019-01-12T06:11:27.883Z,70.68
2019-01-12T06:16:31.087Z,70.33
2019-01-12T06:21:34.287Z,70.39
2019-01-12T06:26:37.672Z,70.29
2019-01-12T06:31:40.884Z,70.23
2019-01-12T06:36:44.289Z,69.96
2019-01-12T06:41:47.492Z,69.93
2019-01-12T06:46:50.695Z,69.74
2019-01-12T06:51:54.129Z,70.25
2019-01-12T06:56:57.365Z,70.06
2019-01-12T07:02:00.576Z,70.42
2019-01-12T07:07:03.791Z,70.66
2019-01-12T07:12:07.018Z,70.77
2019-01-12T07:17:10.240Z,70.81
2019-01-12T07:22:13.442Z,70.52
2019-01-12T07:27:17.677Z,70.51
2019-01-12T07:32:20.880Z,70.45
2019-01-12T07:37:24.089Z,70.37
2019-01-12T07:42:27.296Z,70.02
2019-01-12T07:47:30.508Z,70.53
2019-01-12T07:52:33.731Z,70.31
2019-01-12T07:57:36.962Z,70.39
2019-01-12T08:02:40.279Z,70.44
2019-01-12T08:07:43.493Z,69.97
2019-01-12T08:12:46.807Z,70.42
2019-01-12T08:17:50.011Z,70.62
2019-01-12T08:22:53.682Z,70.69
2019-01-12T08:27:56.557Z,70.58
2019-01-12T08:32:59.782Z,70.26
2019-01-12T08:38:03.015Z,70.22
2019-01-12T08:43:06.244Z,69.99
2019-01-12T08:48:09.460Z,69.93
2019-01-12T08:53:12.722Z,70.04
2019-01-12T08:58:16.130Z,69.94
2019-01-12T09:03:19.351Z,70.25
2019-01-12T09:08:22.733Z,70.15
2019-01-12T09:13:25.976Z,70.35
2019-01-12T09:18:29.185Z,70.05
2019-01-12T09:23:32.598Z,69.82
2019-01-12T09:28:35.932Z,69.47
2019-01-12T09:33:39.200Z,69.72
2019-01-12T09:38:42.569Z,69.65
2019-01-12T09:43:45.856Z,69.43
2019-01-12T09:48:49.196Z,69.38
2019-01-12T09:53:52.405Z,69.45
2019-01-12T09:58:55.760Z,69.45
2019-01-12T10:04:03.092Z,69.28
2019-01-12T10:09:07.599Z,69.36
2019-01-12T10:14:11.048Z,69.17
2019-01-12T10:19:14.314Z,69.04
2019-01-12T10:24:17.547Z,69.18
2019-01-12T10:29:20.896Z,69.09
2019-01-12T10:34:25.281Z,69.26
2019-01-12T10:39:27.476Z,69.31
2019-01-12T10:44:30.851Z,68.87
2019-01-12T10:49:34.187Z,68.96
2019-01-12T10:54:37.507Z,69.14
2019-01-12T10:59:40.740Z,68.90
2019-01-12T11:04:44.463Z,69.16
2019-01-12T11:09:47.877Z,68.81
2019-01-12T11:14:51.527Z,69.26
2019-01-12T11:19:54.916Z,69.14
2019-01-12T11:24:58.241Z,69.12
2019-01-12T11:30:01.470Z,68.60
2019-01-12T11:35:05.702Z,68.56
2019-01-12T11:40:12.395Z,68.32
2019-01-12T11:45:15.768Z,68.62
2019-01-12T11:50:19.202Z,68.99
2019-01-12T11:55:22.654Z,68.92
2019-01-12T12:00:28.713Z,69.19
2019-01-12T12:05:32.222Z,69.06
2019-01-12T12:10:35.535Z,69.00
2019-01-12T12:15:38.754Z,69.14
2019-01-12T12:20:42.100Z,68.91
2019-01-12T12:25:45.605Z,68.68
2019-01-12T12:30:48.987Z,68.96
2019-01-12T12:35:52.461Z,69.36
2019-01-12T12:40:55.913Z,68.98
2019-01-12T12:45:59.403Z,68.89
2019-01-12T12:51:03.051Z,69.28
2019-01-12T12:56:06.452Z,69.15
2019-01-12T13:01:09.745Z,68.82
2019-01-12T13:06:13.237Z,68.65
2019-01-12T13:11:16.559Z,68.91
2019-01-12T13:16:19.979Z,68.93
2019-01-12T13:21:23.315Z,68.87
2019-01-12T13:26:26.780Z,69.21
2019-01-12T13:31:30.194Z,69.34
2019-01-12T13:36:33.651Z,68.72
2019-01-12T13:41:37.057Z,68.79
2019-01-12T13:46:40.558Z,68.89
2019-01-12T13:51:45.404Z,68.88
2019-01-12T13:56:48.308Z,69.12
2019-01-12T14:01:51.647Z,69.19
2019-01-12T14:06:55.070Z,69.31
2019-01-12T14:11:58.476Z,68.76
2019-01-12T14:17:01.845Z,68.68
2019-01-12T14:22:05.244Z,68.40
2019-01-12T14:27:08.524Z,68.12
2019-01-12T14:32:12.016Z,68.29
2019-01-12T14:37:15.449Z,67.93
2019-01-12T14:42:18.947Z,68.02
2019-01-12T14:47:22.299Z,67.85
2019-01-12T14:52:25.774Z,67.59
2019-01-12T14:57:29.099Z,67.53
2019-01-12T15:02:32.466Z,67.67
2019-01-12T15:07:35.888Z,68.27
2019-01-12T15:12:39.232Z,68.07
2019-01-12T15:17:42.654Z,68.15
2019-01-12T15:22:46.180Z,67.90
2019-01-12T15:27:49.683Z,67.65
2019-01-12T15:32:53.184Z,67.65
2019-01-12T15:37:56.706Z,67.47
2019-01-12T15:43:00.039Z,67.31
2019-01-12T15:48:03.375Z,67.29
2019-01-12T15:53:06.735Z,67.65
2019-01-12T15:58:16.174Z,67.55
2019-01-12T16:03:13.568Z,67.50
2019-01-12T16:08:17.084Z,67.81
2019-01-12T16:13:20.502Z,67.98
2019-01-12T16:18:23.930Z,68.03
2019-01-12T16:23:27.380Z,68.15
2019-01-12T16:28:31.877Z,68.84
2019-01-12T16:33:35.288Z,69.08
2019-01-12T16:38:38.772Z,69.30
2019-01-12T16:43:42.178Z,69.06
2019-01-12T16:48:45.499Z,69.51
2019-01-12T16:53:48.838Z,69.97
2019-01-12T16:58:52.271Z,69.66
2019-01-12T17:03:55.682Z,69.66
2019-01-12T17:08:59.022Z,69.59
2019-01-12T17:14:02.577Z,69.45
2019-01-12T17:19:05.908Z,69.39
2019-01-12T17:24:09.321Z,69.55
2019-01-12T17:29:17.684Z,69.71
2019-01-12T17:34:16.234Z,69.70
2019-01-12T17:39:19.566Z,69.90
2019-01-12T17:44:23.171Z,70.06
2019-01-12T17:49:27.853Z,69.81
2019-01-12T17:54:30.104Z,70.17
2019-01-12T17:59:33.547Z,69.93
2019-01-12T18:04:36.996Z,69.87
2019-01-12T18:09:40.439Z,69.75
2019-01-12T18:14:43.952Z,69.96
2019-01-12T18:19:47.584Z,69.94
2019-01-12T18:24:51.163Z,70.03
2019-01-12T18:29:54.673Z,69.99
2019-01-12T18:34:58.024Z,70.26
2019-01-12T18:40:01.440Z,70.33
2019-01-12T18:45:05.088Z,70.57
2019-01-12T18:50:11.468Z,70.14
2019-01-12T18:55:14.915Z,70.18
2019-01-12T19:00:21.012Z,70.01
2019-01-12T19:05:24.500Z,70.11
2019-01-12T19:10:27.888Z,70.26
2019-01-12T19:15:31.753Z,70.31
2019-01-12T19:20:35.224Z,69.88
2019-01-12T19:25:38.943Z,69.44
2019-01-12T19:30:42.408Z,69.69
2019-01-12T19:35:45.871Z,69.13
2019-01-12T19:40:49.359Z,69.33
2019-01-12T19:45:53.936Z,68.98
2019-01-12T19:50:57.449Z,68.90
2019-01-12T19:56:03.199Z,69.52
2019-01-12T20:01:07.154Z,68.98
2019-01-12T20:06:16.904Z,69.16
2019-01-12T20:11:14.740Z,69.25
2019-01-12T20:16:19.758Z,69.34
2019-01-12T20:21:23.185Z,69.07
2019-01-12T20:26:29.721Z,69.00
2019-01-12T20:32:15.222Z,69.39
2019-01-12T20:38:26.621Z,69.35
2019-01-12T20:43:42.740Z,69.68
2019-01-12T20:48:59.540Z,69.47
2019-01-12T20:55:17.646Z,70.05
2019-01-12T21:02:35.523Z,69.85
2019-01-12T21:07:49.229Z,69.55
2019-01-12T21:13:11.760Z,69.96
2019-01-12T21:18:15.135Z,69.97
2019-01-12T21:23:18.980Z,69.93
2019-01-12T21:28:23.464Z,69.87
2019-01-12T21:33:26.991Z,70.38
2019-01-12T21:38:30.716Z,70.42
2019-01-12T21:43:34.833Z,70.34
2019-01-12T21:48:39.004Z,70.31
2019-01-12T21:53:42.825Z,70.43
2019-01-12T21:58:47.391Z,70.26
2019-01-12T22:03:53.703Z,70.28
2019-01-12T22:08:57.657Z,70.27
2019-01-12T22:14:01.754Z,69.84
2019-01-12T22:19:05.866Z,69.68
2019-01-12T22:24:10.948Z,69.85
2019-01-12T22:29:15.359Z,69.89
2019-01-12T22:34:20.086Z,69.87
2019-01-12T22:39:24.667Z,69.67
2019-01-12T22:44:28.786Z,69.61
2019-01-12T22:49:32.132Z,69.66
2019-01-12T22:54:35.402Z,69.88
2019-01-12T22:59:38.657Z,70.01
2019-01-12T23:04:43.040Z,70.29
2019-01-12T23:09:46.302Z,69.82
2019-01-12T23:14:49.659Z,70.09
2019-01-12T23:19:53.055Z,69.95
2019-01-12T23:24:56.312Z,69.98
2019-01-12T23:30:04.295Z,70.19
2019-01-12T23:35:02.964Z,70.47
2019-01-12T23:40:06.347Z,69.89
2019-01-12T23:45:23.512Z,69.95
2019-01-12T23:50:28.006Z,69.87
2019-01-12T23:55:31.595Z,69.93
